Terminal Aerodrome Forecast
Issued by NWS Louisville, KY

Home | Current Version | Previous Version | Text Only | Print | Product List | Glossary On
Versions: 1 2 3 4 5 6 7 8 9 10 11 12 13
000
FTUS43 KLMK 121720
TAFLEX
TAF
KLEX 121720Z 1218/1318 31015G24KT P6SM BKN050
     FM130000 28006KT P6SM FEW250
     FM130800 21005KT P6SM FEW200
     FM131400 20013G20KT P6SM SCT120=

USA.gov is the U.S. government's official web portal to all federal, state and local government web resources and services.